Time;durP1;ratioP1;P1;durP2;ratioP2;P2;SDS_P1;SDS_P2;PMS_P1;PMS_P2;Temp;Humidity;BMP_temperature;BMP_pressure;BME280_temperature;BME280_humidity;BME280_pressure;Samples;Min_cycle;Max_cycle;Signal;HPM_P1;HPM_P2
2022/03/14 00:00:16;;;;;;;10.93;3.22;;;;;;;16.21;37.14;100966.00;5057662;28;20082;-79
2022/03/14 00:02:42;;;;;;;13.63;4.75;;;;;;;16.19;37.46;100965.56;5075560;28;20467;-78
2022/03/14 00:05:10;;;;;;;16.63;4.00;;;;;;;16.33;37.51;100975.09;5075495;28;20059;-78
2022/03/14 00:07:38;;;;;;;10.93;3.17;;;;;;;16.31;37.39;100965.53;5075497;28;20024;-78
2022/03/14 00:10:05;;;;;;;10.38;2.97;;;;;;;16.31;37.60;100973.81;5075396;28;20025;-77
2022/03/14 00:12:31;;;;;;;14.95;3.25;;;;;;;16.41;37.09;100978.88;5075238;28;20032;-77
2022/03/14 00:15:03;;;;;;;15.50;3.60;;;;;;;16.19;37.57;100976.59;5075255;28;20028;-78
2022/03/14 00:17:29;;;;;;;11.60;3.42;;;;;;;16.08;37.98;100981.72;5075239;28;20054;-78
2022/03/14 00:19:57;;;;;;;8.30;2.50;;;;;;;15.96;38.17;100990.00;5073971;28;20060;-77
2022/03/14 00:22:24;;;;;;;13.43;2.75;;;;;;;16.14;38.01;100985.06;5075142;28;20086;-80
2022/03/14 00:24:49;;;;;;;14.43;3.15;;;;;;;16.08;38.04;100988.03;5075135;28;20027;-78
2022/03/14 00:27:15;;;;;;;13.32;3.28;;;;;;;16.16;37.96;100997.34;5075000;28;20032;-78
2022/03/14 00:29:41;;;;;;;13.90;2.83;;;;;;;16.31;37.59;101004.94;5075143;28;20078;-77
2022/03/14 00:32:07;;;;;;;16.02;4.57;;;;;;;15.92;38.36;101006.41;5074994;28;20086;-79
2022/03/14 00:34:32;;;;;;;12.73;4.10;;;;;;;15.97;38.27;101011.72;5075181;28;20029;-77
2022/03/14 00:36:58;;;;;;;10.23;3.30;;;;;;;15.96;38.47;101006.56;5074873;28;20024;-78
2022/03/14 00:39:24;;;;;;;11.75;2.65;;;;;;;15.94;38.18;101004.09;5074907;28;20103;-78
2022/03/14 00:41:49;;;;;;;18.55;4.07;;;;;;;16.06;38.31;101011.59;5073589;28;20035;-78
2022/03/14 00:44:16;;;;;;;10.07;3.00;;;;;;;16.21;37.69;101007.34;5074732;28;20056;-79
2022/03/14 00:46:43;;;;;;;9.30;2.83;;;;;;;16.20;37.79;101014.03;5074687;28;20020;-78
2022/03/14 00:49:08;;;;;;;10.13;3.25;;;;;;;16.07;37.98;101010.44;5074678;28;20044;-78
2022/03/14 00:51:34;;;;;;;15.73;4.18;;;;;;;16.12;37.97;101017.69;5074711;28;20028;-77
2022/03/14 00:54:01;;;;;;;10.82;2.72;;;;;;;15.97;38.40;101025.50;5074681;28;20369;-78
2022/03/14 00:56:27;;;;;;;17.33;3.17;;;;;;;16.10;37.88;101026.31;5074491;28;20070;-78
2022/03/14 00:58:53;;;;;;;13.50;3.40;;;;;;;16.01;37.89;101029.16;5072968;28;20057;-78
2022/03/14 01:01:19;;;;;;;12.82;4.10;;;;;;;16.15;37.66;101042.63;5074494;28;20028;-84
2022/03/14 01:03:44;;;;;;;10.90;2.70;;;;;;;16.01;37.96;101053.16;5074385;28;20032;-78
2022/03/14 01:06:10;;;;;;;13.32;3.58;;;;;;;15.94;38.20;101073.00;5074303;28;20108;-77
2022/03/14 01:08:35;;;;;;;10.98;2.92;;;;;;;15.83;38.41;101069.09;5074265;28;20028;-79
2022/03/14 01:11:01;;;;;;;12.18;4.72;;;;;;;15.87;38.30;101086.56;5074200;28;20039;-78
2022/03/14 01:13:27;;;;;;;12.10;2.80;;;;;;;16.01;38.17;101084.28;5074172;28;20025;-77
2022/03/14 01:15:53;;;;;;;12.02;3.50;;;;;;;16.09;37.84;101093.59;5074180;28;20020;-78
2022/03/14 01:18:18;;;;;;;12.13;2.22;;;;;;;15.98;38.07;101090.47;5073946;28;20040;-78
2022/03/14 01:20:44;;;;;;;11.10;2.67;;;;;;;15.95;37.91;101098.63;5074077;28;20478;-78
2022/03/14 01:23:10;;;;;;;10.77;2.53;;;;;;;15.93;38.27;101100.91;5073968;28;20031;-78
2022/03/14 01:25:37;;;;;;;12.85;2.63;;;;;;;15.98;38.16;101101.50;5073972;28;20577;-79
2022/03/14 01:28:03;;;;;;;11.45;3.22;;;;;;;16.00;38.05;101101.16;5073919;28;20036;-77
2022/03/14 01:30:29;;;;;;;17.45;3.65;;;;;;;15.90;38.36;101116.19;5073528;28;20133;-78
2022/03/14 01:32:55;;;;;;;14.40;3.25;;;;;;;16.00;38.07;101121.25;5073771;28;20035;-77
2022/03/14 01:35:21;;;;;;;15.63;3.08;;;;;;;15.90;38.46;101145.69;5073789;28;20020;-77
2022/03/14 01:37:50;;;;;;;18.05;3.90;;;;;;;15.91;38.20;101139.03;5073563;28;20028;-77
2022/03/14 01:40:19;;;;;;;10.63;4.03;;;;;;;15.95;38.20;101146.28;5089292;28;20025;-78
2022/03/14 01:42:45;;;;;;;15.13;2.97;;;;;;;15.92;38.06;101149.72;5073773;28;20323;-79
2022/03/14 01:45:13;;;;;;;11.07;2.88;;;;;;;15.96;37.98;101158.94;5073601;28;20112;-78
2022/03/14 01:47:41;;;;;;;12.52;3.22;;;;;;;15.69;38.81;101159.50;5073500;28;20025;-77
2022/03/14 01:50:08;;;;;;;13.45;2.88;;;;;;;15.71;38.77;101163.50;5073415;28;20025;-78
2022/03/14 01:52:34;;;;;;;10.23;2.75;;;;;;;15.70;38.75;101161.09;5073278;28;20082;-78
2022/03/14 01:55:02;;;;;;;10.18;4.00;;;;;;;15.81;38.46;101171.38;5073367;28;20466;-86
2022/03/14 01:57:29;;;;;;;15.10;3.20;;;;;;;15.95;38.16;101178.56;5073080;28;20048;-79
2022/03/14 01:59:55;;;;;;;10.57;2.97;;;;;;;15.72;38.56;101187.19;5073265;28;20044;-78
2022/03/14 02:02:21;;;;;;;16.23;3.10;;;;;;;15.69;38.58;101192.53;5073191;28;20412;-78
2022/03/14 02:04:47;;;;;;;19.33;3.90;;;;;;;15.81;38.37;101203.63;5073109;28;20028;-78
2022/03/14 02:07:12;;;;;;;10.73;3.20;;;;;;;15.80;38.68;101197.31;5073195;28;20032;-77
2022/03/14 02:09:38;;;;;;;15.38;3.20;;;;;;;15.92;38.23;101209.53;5073076;28;20028;-78
2022/03/14 02:12:06;;;;;;;8.43;2.78;;;;;;;15.98;38.12;101210.94;5073067;28;20051;-84
2022/03/14 02:14:32;;;;;;;11.60;2.63;;;;;;;15.89;38.23;101224.00;5088587;28;20025;-78
2022/03/14 02:16:57;;;;;;;7.28;2.55;;;;;;;15.99;37.82;101231.84;5072852;28;20028;-78
2022/03/14 02:19:24;;;;;;;11.95;4.15;;;;;;;15.93;38.07;101238.69;5072945;28;20024;-78
2022/03/14 02:21:49;;;;;;;7.45;2.63;;;;;;;16.01;38.12;101251.59;5072904;28;20056;-85
2022/03/14 02:24:15;;;;;;;10.75;2.55;;;;;;;15.96;37.92;101255.38;5072833;28;20054;-77
2022/03/14 02:26:43;;;;;;;12.32;3.03;;;;;;;15.99;38.02;101248.38;5072895;28;20020;-78
2022/03/14 02:29:10;;;;;;;11.77;4.20;;;;;;;15.95;37.96;101252.97;5072841;28;20028;-78
2022/03/14 02:31:37;;;;;;;11.68;3.40;;;;;;;15.92;38.17;101259.13;5072746;28;20020;-77
2022/03/14 02:34:06;;;;;;;17.83;3.50;;;;;;;16.05;37.63;101269.09;5072867;28;20025;-79
2022/03/14 02:36:32;;;;;;;14.70;3.28;;;;;;;15.89;37.98;101265.34;5072773;28;20036;-76
2022/03/14 02:38:58;;;;;;;9.40;2.47;;;;;;;15.81;38.12;101280.78;5072678;28;20036;-78
2022/03/14 02:41:25;;;;;;;16.00;3.05;;;;;;;15.97;38.01;101295.59;5071985;28;20089;-77
2022/03/14 02:43:51;;;;;;;10.57;2.80;;;;;;;15.90;38.16;101295.31;5072664;28;20359;-77
2022/03/14 02:46:17;;;;;;;12.63;4.50;;;;;;;15.99;37.94;101298.81;5072675;28;20029;-85
2022/03/14 02:48:43;;;;;;;15.82;3.47;;;;;;;15.98;37.92;101296.38;5072561;28;20026;-77
2022/03/14 02:51:08;;;;;;;10.23;3.25;;;;;;;15.82;38.25;101296.19;5072609;28;20020;-78
2022/03/14 02:53:34;;;;;;;11.80;2.47;;;;;;;15.85;38.07;101298.25;5072452;28;20504;-77
2022/03/14 02:56:00;;;;;;;12.18;3.10;;;;;;;15.87;38.13;101306.19;5072458;28;20657;-78
2022/03/14 02:58:28;;;;;;;12.75;3.33;;;;;;;15.91;37.96;101307.94;5072187;28;20059;-79
2022/03/14 03:00:54;;;;;;;8.77;2.58;;;;;;;15.87;37.92;101307.00;5072459;28;20066;-77
2022/03/14 03:03:19;;;;;;;12.13;3.08;;;;;;;15.92;37.70;101311.50;5072427;28;20054;-77
2022/03/14 03:05:45;;;;;;;16.30;3.33;;;;;;;15.89;37.59;101314.94;5072146;28;20478;-77
2022/03/14 03:08:11;;;;;;;8.93;3.20;;;;;;;15.85;37.62;101317.53;5072339;28;20027;-78
2022/03/14 03:10:37;;;;;;;9.13;2.75;;;;;;;15.76;37.59;101316.78;5072325;28;20060;-78
2022/03/14 03:13:03;;;;;;;14.90;3.38;;;;;;;15.80;37.78;101320.50;5072351;28;20411;-78
2022/03/14 03:15:29;;;;;;;11.68;3.08;;;;;;;15.73;37.90;101318.28;5054250;28;20029;-78
2022/03/14 03:17:55;;;;;;;15.57;3.00;;;;;;;15.66;37.92;101320.75;5072227;28;20112;-78
2022/03/14 03:20:22;;;;;;;11.98;3.08;;;;;;;15.68;37.61;101320.41;5072315;28;20100;-78
2022/03/14 03:22:48;;;;;;;11.70;3.10;;;;;;;15.58;38.07;101316.06;5072316;28;20028;-78
2022/03/14 03:25:14;;;;;;;10.15;3.55;;;;;;;15.66;37.73;101311.69;5072230;28;20024;-77
2022/03/14 03:27:40;;;;;;;18.60;3.38;;;;;;;15.67;37.59;101319.63;5072168;28;20475;-77
2022/03/14 03:30:06;;;;;;;12.15;2.97;;;;;;;15.63;37.71;101331.63;5072121;28;20027;-77
2022/03/14 03:32:32;;;;;;;9.02;3.28;;;;;;;15.58;37.82;101334.56;5072067;28;20029;-77
2022/03/14 03:34:58;;;;;;;7.90;3.75;;;;;;;15.58;37.92;101338.09;5072182;28;20033;-84
2022/03/14 03:37:23;;;;;;;12.80;2.65;;;;;;;15.60;37.73;101352.34;5072001;28;20016;-79
2022/03/14 03:39:49;;;;;;;9.85;2.60;;;;;;;15.62;37.61;101350.09;5072034;28;20024;-78
2022/03/14 03:42:15;;;;;;;14.48;3.75;;;;;;;15.50;38.05;101353.53;5071967;28;20025;-78
2022/03/14 03:44:40;;;;;;;8.98;2.58;;;;;;;15.47;38.09;101359.69;5072010;28;20044;-78
2022/03/14 03:47:06;;;;;;;14.25;3.53;;;;;;;15.44;38.03;101363.13;5071974;28;20052;-78
2022/03/14 03:49:32;;;;;;;15.60;3.75;;;;;;;15.39;38.13;101362.50;5071976;28;20031;-77
2022/03/14 03:51:58;;;;;;;14.43;4.53;;;;;;;15.37;38.18;101368.31;5072008;28;20035;-77
2022/03/14 03:54:24;;;;;;;13.65;2.75;;;;;;;15.41;38.09;101360.19;5074887;28;20103;-77
2022/03/14 03:56:50;;;;;;;12.60;2.80;;;;;;;15.41;38.09;101362.97;5075423;28;20474;-78
2022/03/14 03:59:16;;;;;;;12.57;2.83;;;;;;;15.46;38.01;101368.28;5075526;28;20020;-77
2022/03/14 04:01:43;;;;;;;12.52;3.17;;;;;;;15.37;38.30;101362.81;5075536;28;20025;-79
2022/03/14 04:04:09;;;;;;;14.10;2.78;;;;;;;15.39;38.01;101368.00;5075526;28;20031;-78
2022/03/14 04:06:36;;;;;;;12.80;3.92;;;;;;;15.33;38.24;101372.88;5075405;28;20028;-78
2022/03/14 04:09:03;;;;;;;11.80;2.67;;;;;;;15.29;38.51;101382.94;5075395;28;20029;-77
2022/03/14 04:11:29;;;;;;;12.52;3.45;;;;;;;15.24;38.60;101367.41;5075385;28;20024;-78
2022/03/14 04:13:56;;;;;;;15.00;2.88;;;;;;;15.31;38.50;101371.59;5075327;28;20382;-78
2022/03/14 04:16:23;;;;;;;7.13;2.30;;;;;;;15.31;38.47;101377.09;5075288;28;20465;-78
2022/03/14 04:18:48;;;;;;;11.30;2.72;;;;;;;15.36;38.43;101377.72;5075256;28;20021;-79
2022/03/14 04:21:16;;;;;;;9.27;2.65;;;;;;;15.46;38.42;101385.63;5075342;28;20398;-77
2022/03/14 04:23:44;;;;;;;13.85;4.05;;;;;;;15.39;38.20;101385.31;5057131;28;20023;-78
2022/03/14 04:26:09;;;;;;;13.38;2.40;;;;;;;15.35;38.30;101389.88;5075117;28;20020;-77
2022/03/14 04:28:36;;;;;;;14.43;2.75;;;;;;;15.38;38.34;101383.72;5075039;28;20032;-77
2022/03/14 04:31:06;;;;;;;14.30;3.15;;;;;;;15.35;38.38;101380.81;5075032;28;20020;-82
2022/03/14 04:33:32;;;;;;;10.65;3.08;;;;;;;15.34;38.18;101396.53;5090628;28;20120;-77
2022/03/14 04:35:59;;;;;;;10.15;2.80;;;;;;;15.34;38.13;101381.94;5074994;28;20028;-78
2022/03/14 04:38:25;;;;;;;12.50;3.05;;;;;;;15.29;38.37;101393.16;5074763;28;20108;-77
2022/03/14 04:40:51;;;;;;;11.32;3.22;;;;;;;15.23;38.50;101398.00;5074960;28;20028;-77
2022/03/14 04:43:17;;;;;;;12.23;2.58;;;;;;;15.27;38.47;101396.22;5074854;28;20386;-78
2022/03/14 04:45:43;;;;;;;10.27;2.70;;;;;;;15.27;38.45;101407.25;5074797;28;20031;-78
2022/03/14 04:48:09;;;;;;;11.82;3.00;;;;;;;15.31;38.23;101405.44;5074772;28;20474;-79
2022/03/14 04:50:38;;;;;;;20.95;3.92;;;;;;;15.27;38.56;101410.00;5074695;28;20035;-78
2022/03/14 04:53:04;;;;;;;10.05;3.75;;;;;;;15.29;38.38;101407.72;5090323;28;20573;-78
2022/03/14 04:55:30;;;;;;;9.48;2.75;;;;;;;15.21;38.49;101406.59;5074560;28;20033;-78
2022/03/14 04:57:55;;;;;;;11.30;2.63;;;;;;;15.22;38.62;101408.22;5074280;28;20387;-78
2022/03/14 05:00:22;;;;;;;14.23;2.40;;;;;;;15.32;38.38;101398.78;5074624;28;20032;-78
2022/03/14 05:02:48;;;;;;;7.35;2.75;;;;;;;15.23;38.61;101404.31;5074531;28;20078;-79
2022/03/14 05:05:14;;;;;;;11.10;2.60;;;;;;;15.21;38.65;101416.81;5073707;28;20451;-78
2022/03/14 05:07:42;;;;;;;16.95;3.35;;;;;;;15.22;38.64;101413.72;5074322;28;20032;-78
2022/03/14 05:10:08;;;;;;;10.73;3.40;;;;;;;15.27;38.45;101407.25;5073045;28;20424;-78
2022/03/14 05:12:34;;;;;;;12.48;3.05;;;;;;;15.18;38.43;101406.44;5074281;28;20466;-78
2022/03/14 05:15:00;;;;;;;12.30;2.85;;;;;;;15.10;38.97;101415.53;5074253;28;20463;-78
2022/03/14 05:17:30;;;;;;;11.85;2.60;;;;;;;15.20;38.85;101417.94;5071420;28;20153;-79
2022/03/14 05:19:55;;;;;;;8.38;2.78;;;;;;;15.27;38.56;101418.25;5072769;28;20029;-78
2022/03/14 05:22:21;;;;;;;12.10;2.33;;;;;;;15.23;38.58;101423.59;5073983;28;20420;-82
2022/03/14 05:24:46;;;;;;;8.10;2.33;;;;;;;15.16;38.89;101425.22;5073969;28;20031;-77
2022/03/14 05:27:12;;;;;;;14.23;2.97;;;;;;;15.20;38.81;101423.47;5073879;28;20035;-78
2022/03/14 05:29:38;;;;;;;10.63;2.88;;;;;;;15.13;38.94;101428.66;5073846;28;20025;-78
2022/03/14 05:32:04;;;;;;;12.90;3.78;;;;;;;15.13;39.08;101420.41;5073915;28;20024;-84
2022/03/14 05:34:31;;;;;;;17.70;2.95;;;;;;;15.07;39.07;101429.94;5073793;28;20024;-78
2022/03/14 05:36:58;;;;;;;11.85;2.20;;;;;;;15.23;38.91;101442.06;5073635;28;20108;-78
2022/03/14 05:39:23;;;;;;;11.75;3.00;;;;;;;15.15;39.02;101437.38;5073663;28;20025;-77
2022/03/14 05:41:49;;;;;;;16.85;4.38;;;;;;;15.21;38.79;101447.09;5073594;28;20100;-79
2022/03/14 05:44:15;;;;;;;10.55;3.00;;;;;;;14.95;39.36;101458.94;5073584;28;20107;-77
2022/03/14 05:46:40;;;;;;;19.65;4.30;;;;;;;15.02;39.05;101450.19;5073500;28;20389;-78
2022/03/14 05:49:06;;;;;;;15.23;3.03;;;;;;;15.05;39.28;101455.06;5073514;28;20032;-78
2022/03/14 05:51:36;;;;;;;14.52;2.83;;;;;;;15.08;39.21;101459.09;5073463;28;20387;-82
2022/03/14 05:54:02;;;;;;;12.38;2.90;;;;;;;15.06;39.07;101458.63;5073467;28;20028;-77
2022/03/14 05:56:28;;;;;;;9.10;2.22;;;;;;;15.03;39.30;101465.56;5073360;28;20021;-77
2022/03/14 05:58:54;;;;;;;9.25;2.08;;;;;;;15.09;39.21;101474.47;5073003;28;20094;-78
2022/03/14 06:01:21;;;;;;;8.60;2.08;;;;;;;15.20;38.85;101467.50;5073171;28;20379;-78
2022/03/14 06:03:52;;;;;;;8.85;2.38;;;;;;;15.02;39.09;101466.69;5073304;28;20020;-78
2022/03/14 06:06:18;;;;;;;13.93;2.65;;;;;;;15.12;38.96;101462.81;5073237;28;20107;-78
2022/03/14 06:08:43;;;;;;;5.32;1.77;;;;;;;15.16;39.01;101461.81;5073058;28;20170;-78
2022/03/14 06:11:09;;;;;;;17.75;4.13;;;;;;;15.16;39.02;101474.78;5055168;28;20063;-79
2022/03/14 06:13:35;;;;;;;15.90;4.70;;;;;;;15.01;39.32;101475.28;5073086;28;20031;-78
2022/03/14 06:16:02;;;;;;;10.32;3.03;;;;;;;15.11;39.19;101480.44;5072925;28;20020;-84
2022/03/14 06:18:29;;;;;;;15.07;3.90;;;;;;;15.02;39.33;101474.94;5072943;28;20035;-77
2022/03/14 06:20:58;;;;;;;8.63;2.80;;;;;;;14.99;39.52;101476.41;5073025;28;20024;-79
2022/03/14 06:23:24;;;;;;;9.52;2.65;;;;;;;14.98;39.37;101480.31;5054981;28;20032;-78
2022/03/14 06:25:50;;;;;;;9.70;2.08;;;;;;;14.92;39.50;101486.31;5055120;28;20383;-78
2022/03/14 06:28:16;;;;;;;14.40;2.22;;;;;;;15.06;39.20;101486.94;5072874;28;20027;-78
2022/03/14 06:30:42;;;;;;;9.85;2.45;;;;;;;14.95;39.35;101485.63;5072793;28;20153;-78
2022/03/14 06:33:07;;;;;;;9.68;2.55;;;;;;;15.03;39.30;101493.09;5070347;28;20051;-78
2022/03/14 06:35:35;;;;;;;11.27;3.08;;;;;;;15.09;39.11;101493.72;5071537;28;20047;-78
2022/03/14 06:38:03;;;;;;;9.45;2.67;;;;;;;15.12;39.21;101501.34;5072675;28;20028;-84
2022/03/14 06:40:29;;;;;;;11.68;2.30;;;;;;;15.19;39.03;101496.16;5088226;28;20027;-78
2022/03/14 06:42:55;;;;;;;11.52;2.22;;;;;;;14.95;39.63;101502.97;5072646;28;20024;-78
2022/03/14 06:45:23;;;;;;;8.23;2.40;;;;;;;15.16;39.26;101513.31;5069121;28;20025;-79
2022/03/14 06:47:49;;;;;;;9.05;2.25;;;;;;;15.26;39.21;101510.22;5070685;28;20570;-78
2022/03/14 06:50:15;;;;;;;7.40;2.50;;;;;;;15.39;39.05;101512.00;5052187;28;20061;-77
2022/03/14 06:52:40;;;;;;;10.57;2.50;;;;;;;15.33;39.34;101510.53;5062240;28;20040;-78
2022/03/14 06:55:06;;;;;;;11.68;2.13;;;;;;;15.51;39.24;101517.66;5052978;28;20559;-78
2022/03/14 06:57:32;;;;;;;12.57;2.53;;;;;;;15.47;39.08;101519.44;5057510;28;20050;-77
2022/03/14 06:59:57;;;;;;;13.50;2.25;;;;;;;15.64;38.97;101520.56;5061774;28;20078;-82
2022/03/14 07:02:29;;;;;;;12.10;2.45;;;;;;;15.70;38.76;101517.28;5064495;28;20020;-84
2022/03/14 07:04:55;;;;;;;13.18;2.75;;;;;;;15.57;39.36;101518.28;5060459;28;20056;-77
2022/03/14 07:07:20;;;;;;;10.98;2.63;;;;;;;15.58;39.62;101530.94;5057877;28;20055;-78
2022/03/14 07:09:46;;;;;;;7.80;2.50;;;;;;;15.61;39.33;101526.69;5063096;28;20020;-81
2022/03/14 07:12:12;;;;;;;14.77;2.55;;;;;;;15.70;39.31;101533.03;5063846;28;20385;-82
2022/03/14 07:14:39;;;;;;;19.05;3.13;;;;;;;15.76;39.24;101520.69;5046576;28;20025;-78
2022/03/14 07:17:05;;;;;;;12.77;3.30;;;;;;;15.90;38.93;101521.28;5062660;28;20064;-82
2022/03/14 07:19:31;;;;;;;19.08;4.75;;;;;;;15.87;38.97;101526.63;5051075;28;20017;-80
2022/03/14 07:21:57;;;;;;;16.40;3.45;;;;;;;15.86;39.20;101503.78;5063261;28;20037;-80
2022/03/14 07:24:22;;;;;;;17.73;3.10;;;;;;;15.89;39.14;101527.13;5063784;28;20032;-78
2022/03/14 07:26:48;;;;;;;10.25;2.30;;;;;;;15.99;38.63;101535.03;5069314;28;20032;-77
2022/03/14 07:29:17;;;;;;;12.30;3.65;;;;;;;15.96;38.85;101538.47;5075047;28;20480;-78
2022/03/14 07:31:43;;;;;;;12.63;3.17;;;;;;;15.96;38.46;101542.03;5076071;28;20036;-78
2022/03/14 07:34:09;;;;;;;8.63;2.13;;;;;;;16.02;38.88;101528.84;5076002;28;20025;-78
2022/03/14 07:36:36;;;;;;;11.77;2.53;;;;;;;16.01;38.91;101538.25;5076033;28;20115;-76
2022/03/14 07:39:06;;;;;;;12.05;2.95;;;;;;;16.13;38.64;101548.59;5075949;28;20097;-78
2022/03/14 07:41:32;;;;;;;11.80;2.45;;;;;;;16.04;38.90;101546.69;5076064;28;20024;-77
2022/03/14 07:44:00;;;;;;;13.80;3.20;;;;;;;16.00;38.93;101566.97;5075978;28;20020;-78
2022/03/14 07:46:27;;;;;;;11.45;2.55;;;;;;;16.08;38.79;101566.94;5075856;28;20426;-87
2022/03/14 07:48:52;;;;;;;12.20;2.20;;;;;;;16.02;39.14;101578.47;5058205;28;20036;-78
2022/03/14 07:51:18;;;;;;;11.70;2.63;;;;;;;15.93;39.44;101581.25;5075374;28;20025;-76
2022/03/14 07:53:44;;;;;;;10.52;3.03;;;;;;;16.03;38.96;101582.88;5057467;28;20104;-84
2022/03/14 07:56:11;;;;;;;8.35;2.95;;;;;;;15.80;39.78;101585.84;5075737;28;20482;-78
2022/03/14 07:58:37;;;;;;;17.35;4.00;;;;;;;15.97;39.42;101582.22;5075379;28;20051;-78
2022/03/14 08:01:03;;;;;;;10.60;2.80;;;;;;;15.96;39.55;101594.41;5057661;28;20032;-85
2022/03/14 08:03:28;;;;;;;5.43;2.40;;;;;;;16.02;39.59;101590.34;5057247;28;20021;-81
2022/03/14 08:06:00;;;;;;;12.43;3.47;;;;;;;16.02;39.67;101600.53;5057649;28;20035;-78
2022/03/14 08:08:26;;;;;;;12.00;3.05;;;;;;;15.87;40.33;101604.63;5057510;28;20486;-77
2022/03/14 08:10:54;;;;;;;17.27;3.95;;;;;;;15.73;40.63;101615.03;5057133;28;20402;-77
2022/03/14 08:13:20;;;;;;;8.73;2.35;;;;;;;15.82;40.59;101604.81;5075376;28;20025;-78
2022/03/14 08:15:46;;;;;;;13.07;2.70;;;;;;;15.97;40.43;101609.78;5075248;28;20020;-79
2022/03/14 08:18:13;;;;;;;13.10;4.35;;;;;;;15.63;41.25;101612.59;5074914;28;20082;-79
2022/03/14 08:20:39;;;;;;;8.90;1.95;;;;;;;15.79;41.18;101616.47;5054857;28;20025;-79
2022/03/14 08:23:05;;;;;;;7.90;1.92;;;;;;;15.82;41.05;101616.63;5062790;28;20039;-83
2022/03/14 08:25:32;;;;;;;8.80;3.65;;;;;;;15.63;41.61;101604.34;5051337;28;20024;-83
2022/03/14 08:27:58;;;;;;;12.70;5.32;;;;;;;15.82;41.40;101605.63;5062713;28;20025;-83
2022/03/14 08:30:25;;;;;;;8.10;2.90;;;;;;;15.96;41.11;101590.84;5067448;28;20025;-84
2022/03/14 08:32:53;;;;;;;8.23;3.30;;;;;;;15.57;42.36;101595.41;5050998;28;20394;-79
2022/03/14 08:35:20;;;;;;;11.52;6.97;;;;;;;15.89;41.80;101613.38;5051868;28;20439;-79
2022/03/14 08:37:47;;;;;;;11.30;3.90;;;;;;;15.90;41.67;101620.50;5036923;28;20501;-78
2022/03/14 08:40:15;;;;;;;13.88;6.30;;;;;;;16.02;41.36;101595.84;5034492;28;20033;-78
2022/03/14 08:42:43;;;;;;;12.48;6.32;;;;;;;16.01;41.43;101618.19;5054315;28;20037;-79
2022/03/14 08:45:09;;;;;;;16.60;5.53;;;;;;;16.07;41.19;101611.38;5090186;28;20031;-74
2022/03/14 08:47:36;;;;;;;14.02;8.35;;;;;;;16.16;41.22;101620.44;5087660;28;20103;-75
2022/03/14 08:50:07;;;;;;;14.50;2.80;;;;;;;15.82;42.31;101629.59;5074109;28;20036;-77
2022/03/14 08:52:34;;;;;;;7.10;3.30;;;;;;;16.04;41.78;101640.41;5056622;28;20030;-77
2022/03/14 08:55:00;;;;;;;9.52;2.90;;;;;;;16.05;41.94;101642.03;5074229;28;20054;-75
2022/03/14 08:57:26;;;;;;;9.43;2.80;;;;;;;16.24;41.46;101649.91;5074711;28;20582;-75
2022/03/14 08:59:52;;;;;;;18.17;3.30;;;;;;;16.15;41.61;101651.09;5075008;28;20024;-81
2022/03/14 09:02:18;;;;;;;10.82;2.20;;;;;;;16.14;41.90;101655.78;5057359;28;20115;-80
2022/03/14 09:04:43;;;;;;;9.18;2.58;;;;;;;15.91;42.60;101657.16;5074812;28;20175;-74
2022/03/14 09:07:09;;;;;;;7.10;2.13;;;;;;;16.25;41.94;101646.03;5074193;28;20036;-81
2022/03/14 09:09:34;;;;;;;16.33;5.20;;;;;;;16.25;42.11;101656.28;5056673;28;20020;-73
2022/03/14 09:12:01;;;;;;;5.63;2.78;;;;;;;16.19;42.13;101660.34;5074301;28;20494;-74
2022/03/14 09:14:26;;;;;;;10.30;3.10;;;;;;;16.41;41.95;101665.63;5056373;28;20036;-73
2022/03/14 09:16:53;;;;;;;13.13;3.60;;;;;;;16.38;42.06;101663.50;5074217;28;20032;-73
2022/03/14 09:19:18;;;;;;;11.07;3.75;;;;;;;16.33;42.10;101680.25;5074435;28;20162;-88
2022/03/14 09:21:46;;;;;;;12.02;2.83;;;;;;;16.52;41.80;101677.91;5072526;28;20131;-79
2022/03/14 09:24:11;;;;;;;10.27;2.45;;;;;;;16.51;41.69;101678.22;5080307;28;20054;-87
2022/03/14 09:26:38;;;;;;;8.43;2.42;;;;;;;16.36;42.34;101694.19;5094081;28;20062;-77
2022/03/14 09:29:04;;;;;;;9.77;3.05;;;;;;;16.52;42.06;101691.69;5093632;28;20028;-77
2022/03/14 09:31:30;;;;;;;11.73;3.30;;;;;;;16.33;42.51;101694.84;5094012;28;20028;-77
2022/03/14 09:33:56;;;;;;;9.73;2.58;;;;;;;16.49;42.37;101695.13;5086638;28;20035;-77
2022/03/14 09:36:22;;;;;;;8.70;2.42;;;;;;;16.67;42.04;101706.09;5073850;28;20029;-77
2022/03/14 09:38:48;;;;;;;10.55;4.18;;;;;;;17.06;41.42;101714.03;5073187;28;20512;-78
2022/03/14 09:41:18;;;;;;;10.10;3.55;;;;;;;16.79;42.37;101707.06;5073757;28;20485;-83
2022/03/14 09:43:46;;;;;;;12.55;5.57;;;;;;;16.80;42.37;101724.41;5074023;28;20074;-81
2022/03/14 09:46:12;;;;;;;11.45;3.25;;;;;;;17.02;42.16;101717.81;5080743;28;20020;-77
2022/03/14 09:48:41;;;;;;;9.05;3.28;;;;;;;17.09;42.53;101726.41;5093529;28;20034;-81
2022/03/14 09:51:07;;;;;;;11.75;3.15;;;;;;;16.96;42.58;101727.44;5092458;28;20024;-79
2022/03/14 09:53:35;;;;;;;7.45;3.92;;;;;;;17.26;41.79;101733.75;5072905;28;20027;-78
2022/03/14 09:56:01;;;;;;;6.95;2.33;;;;;;;17.10;42.13;101741.81;5074023;28;20486;-89
2022/03/14 09:58:27;;;;;;;14.70;2.92;;;;;;;17.25;42.06;101737.69;5074389;28;20047;-78
2022/03/14 10:00:57;;;;;;;10.02;3.00;;;;;;;17.32;41.95;101741.53;5074372;28;20505;-86
2022/03/14 10:03:23;;;;;;;10.35;2.55;;;;;;;17.44;41.72;101738.03;5074138;28;20124;-82
2022/03/14 10:05:48;;;;;;;6.25;2.17;;;;;;;17.40;41.92;101745.38;5074203;28;20064;-86
2022/03/14 10:08:15;;;;;;;9.85;2.67;;;;;;;17.48;41.78;101748.09;5074097;28;20108;-88
2022/03/14 10:10:42;;;;;;;8.13;2.63;;;;;;;17.55;41.82;101755.84;5074326;28;20059;-89
2022/03/14 10:13:10;;;;;;;6.63;2.70;;;;;;;17.50;41.99;101753.25;5073736;28;20069;-77
2022/03/14 10:15:37;;;;;;;8.05;2.92;;;;;;;17.62;41.85;101760.84;5072881;28;20025;-85
2022/03/14 10:18:14;;;;;;;11.55;2.75;;;;;;;17.45;42.34;101751.50;5073011;28;20123;-78
2022/03/14 10:21:07;;;;;;;8.95;2.20;;;;;;;17.11;42.97;101760.81;5072748;28;20060;-79
2022/03/14 10:23:39;;;;;;;9.85;4.32;;;;;;;17.54;42.63;101770.81;5068126;28;20040;-78
2022/03/14 10:26:08;;;;;;;5.57;2.63;;;;;;;18.03;41.58;101771.09;5073009;28;20021;-77
2022/03/14 10:28:38;;;;;;;5.72;1.92;;;;;;;17.91;42.05;101762.75;5072825;28;20024;-83
2022/03/14 10:31:04;;;;;;;8.63;2.15;;;;;;;17.79;42.43;101762.69;5072777;28;20070;-77
2022/03/14 10:33:32;;;;;;;8.70;2.70;;;;;;;17.70;42.47;101774.63;5072949;28;20074;-78
2022/03/14 10:35:58;;;;;;;6.38;1.92;;;;;;;17.94;42.40;101784.19;5055288;28;20078;-77
2022/03/14 10:38:25;;;;;;;8.50;2.92;;;;;;;17.93;42.27;101779.81;5072799;28;20025;-82
2022/03/14 10:40:51;;;;;;;6.30;1.77;;;;;;;18.12;42.24;101784.84;5072755;28;20031;-76
2022/03/14 10:43:25;;;;;;;6.15;2.13;;;;;;;18.14;42.49;101775.09;5054876;28;20089;-77
2022/03/14 10:45:52;;;;;;;5.03;1.83;;;;;;;18.50;41.97;101792.94;5072717;28;20429;-86
2022/03/14 10:48:33;;;;;;;4.47;2.17;;;;;;;18.26;42.50;101799.22;5072547;28;20457;-78
2022/03/14 10:51:08;;;;;;;9.32;5.00;;;;;;;18.07;42.85;101790.63;5073413;28;20082;-83
2022/03/14 10:53:38;;;;;;;5.80;1.65;;;;;;;18.08;42.58;101803.28;5053271;28;20037;-77
2022/03/14 10:56:04;;;;;;;6.93;2.65;;;;;;;18.37;42.11;101805.97;5064295;28;20031;-82
2022/03/14 10:58:33;;;;;;;4.22;1.00;;;;;;;18.05;42.89;101809.47;5047191;28;20044;-87
2022/03/14 11:01:04;;;;;;;4.90;2.10;;;;;;;18.70;41.81;101813.47;5072789;28;20120;-78
2022/03/14 11:03:30;;;;;;;4.68;2.10;;;;;;;18.49;42.18;101814.28;5071800;28;20134;-86
2022/03/14 11:06:04;;;;;;;6.57;2.35;;;;;;;18.56;42.12;101822.03;5073202;28;20108;-90
2022/03/14 11:08:32;;;;;;;3.78;1.50;;;;;;;19.05;41.36;101824.97;5073045;28;20104;-82
2022/03/14 11:11:00;;;;;;;3.95;1.52;;;;;;;19.08;41.64;101819.53;5055464;28;20028;-89
2022/03/14 11:13:26;;;;;;;3.65;1.08;;;;;;;18.61;42.31;101830.13;5063600;28;20467;-78
2022/03/14 11:15:52;;;;;;;3.28;1.10;;;;;;;18.81;42.19;101829.28;5033230;28;20047;-78